createdAt,value
2018-09-18T00:01:10.492Z,16.74
2018-09-18T00:03:38.721Z,16.75
2018-09-18T00:06:06.997Z,16.72
2018-09-18T00:08:35.248Z,16.71
2018-09-18T00:11:03.732Z,16.72
2018-09-18T00:13:32.442Z,16.67
2018-09-18T00:16:01.816Z,16.64
2018-09-18T00:18:30.082Z,16.60
2018-09-18T00:20:58.302Z,16.53
2018-09-18T00:23:26.745Z,16.52
2018-09-18T00:25:56.079Z,16.49
2018-09-18T00:28:25.122Z,16.44
2018-09-18T00:30:53.397Z,16.38
2018-09-18T00:33:21.988Z,16.38
2018-09-18T00:35:50.366Z,16.40
2018-09-18T00:38:19.003Z,16.42
2018-09-18T00:40:47.258Z,16.40
2018-09-18T00:43:15.762Z,16.34
2018-09-18T00:45:44.246Z,16.24
2018-09-18T00:48:12.465Z,16.23
2018-09-18T00:50:40.975Z,16.27
2018-09-18T00:53:09.584Z,16.27
2018-09-18T00:55:38.125Z,16.26
2018-09-18T00:58:06.363Z,16.17
2018-09-18T01:00:34.591Z,16.11
2018-09-18T01:03:02.900Z,16.11
2018-09-18T01:05:31.555Z,16.09
2018-09-18T01:08:00.626Z,16.14
2018-09-18T01:10:29.029Z,16.11
2018-09-18T01:12:58.146Z,16.08
2018-09-18T01:15:26.793Z,16.02
2018-09-18T01:17:55.646Z,15.95
2018-09-18T01:20:23.855Z,15.95
2018-09-18T01:22:52.306Z,15.94
2018-09-18T01:25:20.422Z,15.87
2018-09-18T01:27:48.970Z,15.91
2018-09-18T01:30:17.194Z,15.92
2018-09-18T01:32:45.724Z,15.90
2018-09-18T01:35:13.971Z,15.86
2018-09-18T01:37:42.217Z,15.82
2018-09-18T01:40:10.474Z,15.79
2018-09-18T01:42:38.714Z,15.77
2018-09-18T01:45:07.310Z,15.80
2018-09-18T01:47:35.815Z,15.72
2018-09-18T01:50:04.745Z,15.68
2018-09-18T01:52:33.472Z,15.72
2018-09-18T01:55:01.752Z,15.69
2018-09-18T01:57:30.811Z,15.67
2018-09-18T01:59:59.693Z,15.69
2018-09-18T02:02:28.057Z,15.63
2018-09-18T02:04:56.800Z,15.59
2018-09-18T02:07:25.572Z,15.53
2018-09-18T02:09:53.802Z,15.46
2018-09-18T02:12:22.387Z,15.43
2018-09-18T02:14:51.400Z,15.40
2018-09-18T02:17:20.335Z,15.38
2018-09-18T02:19:48.598Z,15.35
2018-09-18T02:22:16.896Z,15.37
2018-09-18T02:24:46.867Z,15.36
2018-09-18T02:27:15.428Z,15.32
2018-09-18T02:29:44.062Z,15.29
2018-09-18T02:32:12.308Z,15.23
2018-09-18T02:34:44.191Z,15.22
2018-09-18T02:37:12.570Z,15.23
2018-09-18T02:39:41.124Z,15.27
2018-09-18T02:42:09.733Z,15.23
2018-09-18T02:44:37.999Z,15.31
2018-09-18T02:47:06.575Z,15.29
2018-09-18T02:49:34.886Z,15.26
2018-09-18T02:52:03.666Z,15.21
2018-09-18T02:54:33.877Z,15.20
2018-09-18T02:57:02.173Z,15.22
2018-09-18T02:59:30.469Z,15.18
2018-09-18T03:01:58.972Z,15.14
2018-09-18T03:04:27.183Z,15.10
2018-09-18T03:06:55.381Z,15.13
2018-09-18T03:09:23.938Z,15.13
2018-09-18T03:11:52.788Z,15.07
2018-09-18T03:14:21.363Z,15.01
2018-09-18T03:16:49.776Z,14.97
2018-09-18T03:19:19.292Z,14.98
2018-09-18T03:21:47.897Z,14.95
2018-09-18T03:24:16.173Z,14.90
2018-09-18T03:26:44.897Z,14.92
2018-09-18T03:29:13.481Z,14.92
2018-09-18T03:31:41.706Z,14.90
2018-09-18T03:34:10.221Z,14.87
2018-09-18T03:36:39.000Z,14.85
2018-09-18T03:39:08.029Z,14.81
2018-09-18T03:41:36.251Z,14.80
2018-09-18T03:44:04.736Z,14.73
2018-09-18T03:46:33.010Z,14.70
2018-09-18T03:49:01.517Z,14.62
2018-09-18T03:54:04.965Z,14.62
2018-09-18T03:56:35.479Z,14.63
2018-09-18T03:59:05.339Z,14.60
2018-09-18T04:01:35.323Z,14.58
2018-09-18T04:04:05.526Z,14.61
2018-09-18T04:06:40.595Z,14.70
2018-09-18T04:09:10.340Z,14.68
2018-09-18T04:11:38.848Z,14.61
2018-09-18T04:14:07.879Z,14.58
2018-09-18T04:16:36.440Z,14.54
2018-09-18T04:19:05.281Z,14.50
2018-09-18T04:21:42.133Z,14.45
2018-09-18T04:24:10.793Z,14.46
2018-09-18T04:26:40.661Z,14.49
2018-09-18T04:29:09.623Z,14.46
2018-09-18T04:31:40.246Z,14.41
2018-09-18T04:34:08.785Z,14.44
2018-09-18T04:36:37.012Z,14.40
2018-09-18T04:39:10.767Z,14.39
2018-09-18T04:41:39.098Z,14.36
2018-09-18T04:44:08.559Z,14.34
2018-09-18T04:46:36.948Z,14.34
2018-09-18T04:49:05.225Z,14.35
2018-09-18T04:51:33.724Z,14.35
2018-09-18T04:54:01.953Z,14.32
2018-09-18T04:56:30.571Z,14.31
2018-09-18T04:58:59.845Z,14.26
2018-09-18T05:01:28.456Z,14.25
2018-09-18T05:04:03.696Z,14.26
2018-09-18T05:06:32.382Z,14.27
2018-09-18T05:09:00.616Z,14.34
2018-09-18T05:11:29.613Z,14.52
2018-09-18T05:13:57.935Z,14.68
2018-09-18T05:16:26.543Z,14.57
2018-09-18T05:18:55.736Z,14.58
2018-09-18T05:21:24.016Z,14.64
2018-09-18T05:23:52.336Z,14.73
2018-09-18T05:26:20.580Z,14.77
2018-09-18T05:28:48.888Z,14.77
2018-09-18T05:31:17.383Z,14.85
2018-09-18T05:33:45.902Z,14.94
2018-09-18T05:36:14.758Z,14.95
2018-09-18T05:38:43.079Z,15.00
2018-09-18T05:41:11.641Z,15.04
2018-09-18T05:43:39.880Z,15.13
2018-09-18T05:46:08.721Z,15.18
2018-09-18T05:48:37.185Z,15.27
2018-09-18T05:51:05.244Z,15.33
2018-09-18T05:53:33.433Z,15.34
2018-09-18T05:56:02.410Z,15.55
2018-09-18T05:58:30.636Z,15.70
2018-09-18T06:00:58.925Z,15.71
2018-09-18T06:03:27.562Z,15.80
2018-09-18T06:05:56.218Z,15.96
2018-09-18T06:08:24.569Z,16.07
2018-09-18T06:10:52.814Z,16.18
2018-09-18T06:13:21.385Z,16.28
2018-09-18T06:15:50.176Z,16.37
2018-09-18T06:18:18.892Z,16.57
2018-09-18T06:20:47.961Z,16.73
2018-09-18T06:23:17.363Z,16.73
2018-09-18T06:25:45.605Z,16.83
2018-09-18T06:28:13.832Z,16.98
2018-09-18T06:30:42.094Z,17.11
2018-09-18T06:33:10.400Z,17.20
2018-09-18T06:35:38.670Z,17.19
2018-09-18T06:38:07.335Z,17.27
2018-09-18T06:40:36.252Z,17.44
2018-09-18T06:43:05.269Z,17.59
2018-09-18T06:45:34.231Z,17.65
2018-09-18T06:48:02.829Z,17.62
2018-09-18T06:50:31.155Z,17.79
2018-09-18T06:52:59.512Z,17.94
2018-09-18T06:55:28.090Z,18.03
2018-09-18T06:57:57.664Z,18.15
2018-09-18T07:00:26.031Z,18.16
2018-09-18T07:02:54.523Z,18.36
2018-09-18T07:05:22.783Z,18.28
2018-09-18T07:07:52.183Z,18.38
2018-09-18T07:10:21.517Z,18.53
2018-09-18T07:12:51.485Z,18.75
2018-09-18T07:15:22.234Z,18.76
2018-09-18T07:17:50.551Z,18.95
2018-09-18T07:20:19.277Z,19.00
2018-09-18T07:22:48.327Z,19.11
2018-09-18T07:25:17.606Z,19.25
2018-09-18T07:27:46.246Z,19.41
2018-09-18T07:30:14.481Z,19.58
2018-09-18T07:32:43.535Z,19.63
2018-09-18T07:35:11.836Z,19.74
2018-09-18T07:37:40.945Z,19.66
2018-09-18T07:40:09.304Z,19.82
2018-09-18T07:42:37.656Z,20.11
2018-09-18T07:45:06.304Z,20.31
2018-09-18T07:47:34.624Z,20.35
2018-09-18T07:50:04.220Z,20.40
2018-09-18T07:52:33.296Z,20.51
2018-09-18T07:55:02.321Z,20.78
2018-09-18T07:57:31.476Z,20.70
2018-09-18T08:00:00.095Z,20.96
2018-09-18T08:02:28.664Z,21.19
2018-09-18T08:04:58.182Z,21.27
2018-09-18T08:07:26.635Z,21.30
2018-09-18T08:09:54.974Z,21.51
2018-09-18T08:12:23.866Z,21.47
2018-09-18T08:14:52.436Z,21.63
2018-09-18T08:17:21.076Z,21.54
2018-09-18T08:19:49.672Z,21.67
2018-09-18T08:22:18.056Z,21.88
2018-09-18T08:24:49.520Z,22.06
2018-09-18T08:27:18.414Z,22.26
2018-09-18T08:29:49.927Z,22.41
2018-09-18T08:32:18.721Z,22.32
2018-09-18T08:34:47.164Z,22.43
2018-09-18T08:37:15.748Z,22.68
2018-09-18T08:39:44.071Z,22.85
2018-09-18T08:42:13.384Z,22.92
2018-09-18T08:44:43.051Z,22.90
2018-09-18T08:47:11.340Z,23.12
2018-09-18T08:49:39.685Z,23.31
2018-09-18T08:52:08.310Z,23.50
2018-09-18T08:54:36.985Z,23.45
2018-09-18T08:59:33.701Z,23.97
2018-09-18T09:02:02.708Z,24.12
2018-09-18T09:04:31.747Z,24.13
2018-09-18T09:07:00.232Z,24.35
2018-09-18T09:09:29.733Z,24.40
2018-09-18T09:11:58.928Z,24.48
2018-09-18T09:14:27.753Z,24.67
2018-09-18T09:16:56.384Z,24.81
2018-09-18T09:19:24.622Z,25.23
2018-09-18T09:21:53.794Z,25.40
2018-09-18T09:24:22.337Z,25.64
2018-09-18T09:26:51.239Z,25.80
2018-09-18T09:29:20.241Z,26.16
2018-09-18T09:31:49.522Z,26.49
2018-09-18T09:34:21.848Z,26.46
2018-09-18T09:36:51.108Z,26.39
2018-09-18T09:39:19.766Z,26.22
2018-09-18T09:41:48.850Z,26.36
2018-09-18T09:44:17.085Z,26.67
2018-09-18T09:46:45.293Z,27.12
2018-09-18T09:49:13.520Z,27.26
2018-09-18T09:51:41.961Z,27.35
2018-09-18T09:54:10.756Z,27.28
2018-09-18T09:56:39.218Z,27.68
2018-09-18T09:59:08.988Z,27.76
2018-09-18T10:01:42.287Z,27.90
2018-09-18T10:04:10.656Z,28.08
2018-09-18T10:06:39.241Z,28.01
2018-09-18T10:09:10.774Z,28.42
2018-09-18T10:11:39.187Z,28.53
2018-09-18T10:14:08.505Z,28.79
2018-09-18T10:16:36.752Z,28.97
2018-09-18T10:19:05.168Z,29.16
2018-09-18T10:21:33.402Z,29.11
2018-09-18T10:24:02.154Z,29.64
2018-09-18T10:26:30.690Z,29.73
2018-09-18T10:28:59.278Z,30.12
2018-09-18T10:31:27.963Z,30.81
2018-09-18T10:33:56.850Z,30.60
2018-09-18T10:36:25.948Z,30.70
2018-09-18T10:38:54.410Z,30.58
2018-09-18T10:41:22.884Z,31.23
2018-09-18T10:43:51.403Z,31.47
2018-09-18T10:46:20.165Z,32.09
2018-09-18T10:48:49.580Z,32.11
2018-09-18T10:51:18.371Z,31.54
2018-09-18T10:53:46.584Z,31.64
2018-09-18T10:56:15.087Z,31.91
2018-09-18T10:58:43.673Z,32.37
2018-09-18T11:01:12.172Z,32.12
2018-09-18T11:03:41.500Z,32.12
2018-09-18T11:06:11.927Z,31.51
2018-09-18T11:08:43.451Z,31.60
2018-09-18T11:11:15.090Z,31.87
2018-09-18T11:13:45.319Z,31.75
2018-09-18T11:16:16.235Z,31.91
2018-09-18T11:18:46.511Z,31.66
2018-09-18T11:21:15.110Z,31.58
2018-09-18T11:23:43.668Z,31.64
2018-09-18T11:26:14.354Z,32.38
2018-09-18T11:28:42.804Z,31.91
2018-09-18T11:31:11.272Z,32.30
2018-09-18T11:33:39.865Z,32.61
2018-09-18T11:36:08.428Z,33.00
2018-09-18T11:38:38.324Z,32.85
2018-09-18T11:41:06.787Z,32.62
2018-09-18T11:43:37.553Z,32.24
2018-09-18T11:46:06.072Z,31.46
2018-09-18T11:48:34.098Z,31.19
2018-09-18T11:51:03.044Z,30.85
2018-09-18T11:53:31.591Z,31.13
2018-09-18T11:55:59.852Z,31.32
2018-09-18T11:58:28.395Z,32.14
2018-09-18T12:00:56.811Z,32.63
2018-09-18T12:03:25.038Z,33.24
2018-09-18T12:05:53.269Z,33.10
2018-09-18T12:08:21.536Z,33.00
2018-09-18T12:10:49.840Z,32.58
2018-09-18T12:13:18.309Z,32.48
2018-09-18T12:15:47.825Z,32.59
2018-09-18T12:18:16.313Z,33.14
2018-09-18T12:20:46.405Z,32.85
2018-09-18T12:23:14.737Z,32.94
2018-09-18T12:25:43.574Z,32.39
2018-09-18T12:28:12.208Z,32.31
2018-09-18T12:30:40.458Z,32.12
2018-09-18T12:33:09.206Z,32.71
2018-09-18T12:35:38.059Z,32.49
2018-09-18T12:38:11.840Z,33.01
2018-09-18T12:40:46.474Z,34.00
2018-09-18T12:43:15.381Z,33.68
2018-09-18T12:45:44.196Z,34.04
2018-09-18T12:48:12.647Z,33.70
2018-09-18T12:50:41.161Z,33.51
2018-09-18T12:53:09.805Z,34.30
2018-09-18T12:55:39.793Z,34.04
2018-09-18T12:58:09.151Z,35.07
2018-09-18T13:00:37.479Z,35.49
2018-09-18T13:03:06.495Z,34.96
2018-09-18T13:05:34.971Z,33.93
2018-09-18T13:08:07.048Z,32.89
2018-09-18T13:10:35.873Z,33.81
2018-09-18T13:13:04.617Z,34.79
2018-09-18T13:15:33.887Z,35.50
2018-09-18T13:18:02.165Z,34.90
2018-09-18T13:20:31.648Z,37.45
2018-09-18T13:23:00.186Z,37.49
2018-09-18T13:25:28.941Z,38.88
2018-09-18T13:27:57.304Z,40.55
2018-09-18T13:30:25.502Z,40.75
2018-09-18T13:32:53.718Z,41.13
2018-09-18T13:35:21.956Z,39.06
2018-09-18T13:37:50.535Z,38.33
2018-09-18T13:40:18.908Z,40.63
2018-09-18T13:42:47.120Z,41.94
2018-09-18T13:45:15.718Z,42.63
2018-09-18T13:47:44.972Z,43.33
2018-09-18T13:50:14.359Z,41.44
2018-09-18T13:52:42.642Z,38.12
2018-09-18T13:55:11.219Z,36.21
2018-09-18T13:57:39.645Z,35.89
2018-09-18T14:00:08.304Z,36.05
2018-09-18T14:02:36.545Z,36.41
2018-09-18T14:05:05.462Z,35.83
2018-09-18T14:07:33.807Z,36.43
2018-09-18T14:10:03.518Z,38.71
2018-09-18T14:12:34.392Z,40.79
2018-09-18T14:15:02.770Z,42.73
2018-09-18T14:17:30.975Z,43.31
2018-09-18T14:19:59.260Z,44.60
2018-09-18T14:22:27.766Z,42.73
2018-09-18T14:24:58.065Z,39.90
2018-09-18T14:27:26.349Z,39.62
2018-09-18T14:29:54.764Z,40.41
2018-09-18T14:32:23.340Z,42.45
2018-09-18T14:34:53.224Z,43.08
2018-09-18T14:37:21.563Z,42.84
2018-09-18T14:39:49.879Z,42.13
2018-09-18T14:42:18.811Z,41.32
2018-09-18T14:44:47.156Z,41.39
2018-09-18T14:47:15.436Z,39.25
2018-09-18T14:49:43.981Z,38.18
2018-09-18T14:52:13.112Z,40.71
2018-09-18T14:54:42.723Z,40.59
2018-09-18T14:57:11.399Z,40.81
2018-09-18T14:59:40.141Z,41.44
2018-09-18T15:02:08.678Z,41.29
2018-09-18T15:04:37.650Z,40.96
2018-09-18T15:07:06.067Z,41.01
2018-09-18T15:09:35.133Z,36.87
2018-09-18T15:12:04.003Z,34.06
2018-09-18T15:14:32.965Z,32.37
2018-09-18T15:17:01.593Z,31.33
2018-09-18T15:19:30.509Z,30.93
2018-09-18T15:21:59.221Z,30.51
2018-09-18T15:24:27.508Z,30.29
2018-09-18T15:26:56.012Z,30.32
2018-09-18T15:29:24.513Z,30.29
2018-09-18T15:31:53.565Z,30.23
2018-09-18T15:34:22.113Z,29.92
2018-09-18T15:36:52.157Z,29.74
2018-09-18T15:39:20.409Z,29.60
2018-09-18T15:41:48.579Z,29.95
2018-09-18T15:44:17.670Z,30.19
2018-09-18T15:46:46.877Z,29.80
2018-09-18T15:49:15.800Z,29.42
2018-09-18T15:51:44.528Z,29.26
2018-09-18T15:54:13.049Z,29.11
2018-09-18T15:56:42.337Z,28.94
2018-09-18T15:59:10.697Z,28.95
2018-09-18T16:01:39.232Z,28.82
2018-09-18T16:04:07.878Z,28.80
2018-09-18T16:06:36.144Z,28.75
2018-09-18T16:09:09.314Z,28.67
2018-09-18T16:11:38.225Z,28.57
2018-09-18T16:14:07.351Z,28.56
2018-09-18T16:16:36.968Z,28.51
2018-09-18T16:19:05.958Z,28.44
2018-09-18T16:21:34.587Z,28.52
2018-09-18T16:24:03.785Z,28.26
2018-09-18T16:26:32.164Z,28.24
2018-09-18T16:29:01.567Z,28.18
2018-09-18T16:31:31.045Z,28.20
2018-09-18T16:34:00.540Z,28.19
2018-09-18T16:36:29.286Z,28.21
2018-09-18T16:38:58.765Z,28.09
2018-09-18T16:41:27.118Z,27.91
2018-09-18T16:43:56.419Z,27.76
2018-09-18T16:46:25.261Z,27.78
2018-09-18T16:48:54.344Z,27.58
2018-09-18T16:51:22.884Z,27.37
2018-09-18T16:53:51.364Z,27.32
2018-09-18T16:56:19.995Z,27.20
2018-09-18T16:58:48.396Z,27.12
2018-09-18T17:01:17.069Z,27.15
2018-09-18T17:03:45.430Z,27.10
2018-09-18T17:06:13.734Z,27.01
2018-09-18T17:08:42.241Z,26.91
2018-09-18T17:11:10.880Z,26.80
2018-09-18T17:13:39.738Z,26.69
2018-09-18T17:16:08.270Z,26.60
2018-09-18T17:18:36.590Z,26.59
2018-09-18T17:21:04.791Z,26.47
2018-09-18T17:23:33.412Z,26.38
2018-09-18T17:26:01.762Z,26.30
2018-09-18T17:28:30.240Z,26.35
2018-09-18T17:30:58.654Z,26.14
2018-09-18T17:33:27.669Z,26.11
2018-09-18T17:35:56.221Z,26.18
2018-09-18T17:38:24.444Z,26.22
2018-09-18T17:40:53.373Z,26.16
2018-09-18T17:43:21.949Z,26.12
2018-09-18T17:45:50.253Z,26.07
2018-09-18T17:48:19.233Z,26.00
2018-09-18T17:50:48.349Z,25.98
2018-09-18T17:53:16.579Z,25.85
2018-09-18T17:55:44.805Z,25.76
2018-09-18T17:58:13.053Z,25.70
2018-09-18T18:00:41.439Z,25.77
2018-09-18T18:03:10.276Z,25.57
2018-09-18T18:05:38.768Z,25.53
2018-09-18T18:08:07.330Z,25.40
2018-09-18T18:10:35.633Z,25.26
2018-09-18T18:13:03.882Z,25.15
2018-09-18T18:15:32.770Z,25.05
2018-09-18T18:18:01.053Z,25.02
2018-09-18T18:20:30.038Z,24.98
2018-09-18T18:22:58.426Z,24.87
2018-09-18T18:25:26.688Z,24.84
2018-09-18T18:27:55.361Z,24.96
2018-09-18T18:30:23.809Z,24.89
2018-09-18T18:32:52.384Z,24.75
2018-09-18T18:35:20.881Z,24.80
2018-09-18T18:37:50.327Z,24.74
2018-09-18T18:40:19.380Z,24.71
2018-09-18T18:42:47.641Z,24.64
2018-09-18T18:45:16.138Z,24.63
2018-09-18T18:47:45.287Z,24.73
2018-09-18T18:50:13.737Z,24.79
2018-09-18T18:52:42.348Z,24.73
2018-09-18T18:55:11.605Z,24.62
2018-09-18T18:57:40.679Z,24.57
2018-09-18T19:00:09.018Z,24.53
2018-09-18T19:02:37.848Z,24.66
2018-09-18T19:05:06.288Z,24.66
2018-09-18T19:07:35.205Z,24.60
2018-09-18T19:10:04.242Z,24.53
2018-09-18T19:12:33.248Z,24.62
2018-09-18T19:15:01.588Z,24.54
2018-09-18T19:17:29.862Z,24.42
2018-09-18T19:19:59.502Z,24.36
2018-09-18T19:22:28.739Z,24.20
2018-09-18T19:24:58.032Z,24.16
2018-09-18T19:27:26.298Z,24.14
2018-09-18T19:29:55.400Z,23.90
2018-09-18T19:32:23.667Z,23.84
2018-09-18T19:34:52.824Z,23.70
2018-09-18T19:37:21.430Z,23.62
2018-09-18T19:39:49.947Z,23.69
2018-09-18T19:42:18.252Z,23.82
2018-09-18T19:44:47.165Z,23.92
2018-09-18T19:47:16.434Z,23.78
2018-09-18T19:49:44.774Z,23.61
2018-09-18T19:52:13.454Z,23.50
2018-09-18T19:54:42.334Z,23.54
2018-09-18T19:57:11.024Z,23.48
2018-09-18T19:59:39.320Z,23.53
2018-09-18T20:02:08.759Z,23.48
2018-09-18T20:04:37.141Z,23.31
2018-09-18T20:07:05.569Z,23.24
2018-09-18T20:09:33.811Z,23.20
2018-09-18T20:12:02.106Z,23.25
2018-09-18T20:14:31.192Z,23.30
2018-09-18T20:16:59.812Z,23.26
2018-09-18T20:19:28.227Z,23.30
2018-09-18T20:21:56.765Z,23.28
2018-09-18T20:24:25.014Z,23.02
2018-09-18T20:26:53.312Z,22.91
2018-09-18T20:29:21.916Z,23.03
2018-09-18T20:31:50.542Z,23.11
2018-09-18T20:34:18.844Z,22.94
2018-09-18T20:36:47.166Z,22.89
2018-09-18T20:39:15.393Z,22.84
2018-09-18T20:41:43.721Z,22.75
2018-09-18T20:44:12.276Z,22.71
2018-09-18T20:46:40.822Z,22.63
2018-09-18T20:49:09.200Z,22.82
2018-09-18T20:51:37.984Z,22.89
2018-09-18T20:54:06.220Z,22.77
2018-09-18T20:56:34.808Z,22.67
2018-09-18T20:59:03.173Z,22.49
2018-09-18T21:01:31.819Z,22.39
2018-09-18T21:04:00.195Z,22.31
2018-09-18T21:06:28.425Z,22.27
2018-09-18T21:08:57.023Z,22.32
2018-09-18T21:11:25.354Z,22.28
2018-09-18T21:13:53.677Z,22.31
2018-09-18T21:16:23.764Z,22.21
2018-09-18T21:18:52.312Z,22.21
2018-09-18T21:21:20.869Z,22.11
2018-09-18T21:23:49.134Z,22.21
2018-09-18T21:26:18.521Z,22.17
2018-09-18T21:28:48.901Z,22.08
2018-09-18T21:31:18.236Z,22.02
2018-09-18T21:33:46.777Z,22.06
2018-09-18T21:36:15.380Z,22.04
2018-09-18T21:38:45.049Z,22.07
2018-09-18T21:41:15.429Z,22.05
2018-09-18T21:43:43.786Z,21.96
2018-09-18T21:46:12.656Z,21.92
2018-09-18T21:48:45.065Z,21.86
2018-09-18T21:51:13.364Z,21.83
2018-09-18T21:53:43.378Z,21.86
2018-09-18T21:56:13.435Z,21.93
2018-09-18T21:58:42.065Z,21.95
2018-09-18T22:01:13.552Z,21.87
2018-09-18T22:03:42.359Z,21.79
2018-09-18T22:06:10.833Z,21.76
2018-09-18T22:08:44.830Z,21.77
2018-09-18T22:11:13.090Z,21.70
2018-09-18T22:13:41.464Z,21.79
2018-09-18T22:16:09.730Z,21.68
2018-09-18T22:18:38.572Z,21.70
2018-09-18T22:21:06.982Z,21.62
2018-09-18T22:23:35.686Z,21.50
2018-09-18T22:26:04.582Z,21.46
2018-09-18T22:28:35.459Z,21.42
2018-09-18T22:31:05.760Z,21.50
2018-09-18T22:33:34.084Z,21.47
2018-09-18T22:36:03.059Z,21.44
2018-09-18T22:38:33.039Z,21.37
2018-09-18T22:41:01.574Z,21.37
2018-09-18T22:43:30.052Z,21.43
2018-09-18T22:45:59.202Z,21.44
2018-09-18T22:48:28.882Z,21.35
2018-09-18T22:50:57.163Z,21.30
2018-09-18T22:53:26.194Z,21.20
2018-09-18T22:55:54.768Z,21.19
2018-09-18T22:58:23.098Z,21.05
2018-09-18T23:00:51.748Z,20.94
2018-09-18T23:03:20.421Z,20.89
2018-09-18T23:05:48.692Z,20.82
2018-09-18T23:08:17.756Z,20.74
2018-09-18T23:10:46.066Z,20.64
2018-09-18T23:13:15.021Z,20.60
2018-09-18T23:15:43.526Z,20.53
2018-09-18T23:18:11.775Z,20.47
2018-09-18T23:20:40.325Z,20.42
2018-09-18T23:23:09.659Z,20.33
2018-09-18T23:25:37.995Z,20.23
2018-09-18T23:28:06.356Z,20.13
2018-09-18T23:30:34.969Z,20.00
2018-09-18T23:33:03.167Z,19.93
2018-09-18T23:35:31.902Z,19.90
2018-09-18T23:38:00.130Z,19.82
2018-09-18T23:40:29.307Z,19.66
2018-09-18T23:42:58.060Z,19.73
2018-09-18T23:45:26.663Z,19.74
2018-09-18T23:47:54.876Z,19.76
2018-09-18T23:50:23.429Z,19.71
2018-09-18T23:52:53.000Z,19.61
2018-09-18T23:55:21.513Z,19.54
2018-09-18T23:57:49.753Z,19.47
